Aviation Digital Data Service (ADDS)

Output produced by METARs form (1543 UTC 20 May 2018)
found at http://aviationweather.gov/adds/metars/
 
KFAY 201316Z 2013/2112 18009KT P6SM SCT015 SCT028 
     TEMPO 2013/2015 BKN015 
     FM201500 20006KT P6SM BKN022 BKN200 
     FM201900 20009KT P6SM VCSH SCT025 BKN250 
     TEMPO 2020/2023 VRB16G28KT 1 1/2SM SHRA BR BKN009 OVC016 
     FM210200 21006KT P6SM SCT010 OVC100 
     FM210600 21005KT P6SM BKN008